Time;durP1;ratioP1;P1;durP2;ratioP2;P2;SDS_P1;SDS_P2;PMS_P1;PMS_P2;Temp;Humidity;BMP_temperature;BMP_pressure;BME280_temperature;BME280_humidity;BME280_pressure;Samples;Min_cycle;Max_cycle;Signal;HPM_P1;HPM_P2
2024/02/23 00:01:56;;;;;;;2.50;2.30;;;;;;;5.67;100.00;99938.34;87317;276;137672;-78
2024/02/23 00:03:58;;;;;;;1.60;1.20;;;;;;;5.64;100.00;99935.20;87638;271;22555;-75
2024/02/23 00:06:00;;;;;;;1.70;1.50;;;;;;;5.64;100.00;99940.43;87507;270;136158;-75
2024/02/23 00:08:01;;;;;;;3.20;2.90;;;;;;;5.61;100.00;99931.29;87562;269;22843;-75
2024/02/23 00:10:04;;;;;;;2.40;2.10;;;;;;;5.59;100.00;99933.05;87595;274;22652;-75
2024/02/23 00:12:06;;;;;;;2.20;1.60;;;;;;;5.55;100.00;99928.10;87478;271;135845;-72
2024/02/23 00:14:08;;;;;;;1.80;1.50;;;;;;;5.52;100.00;99924.14;87516;272;25089;-76
2024/02/23 00:16:11;;;;;;;1.40;1.30;;;;;;;5.54;100.00;99921.32;87490;271;136640;-77
2024/02/23 00:18:14;;;;;;;1.80;1.70;;;;;;;5.55;100.00;99920.30;87456;271;22558;-75
2024/02/23 00:20:16;;;;;;;1.70;1.60;;;;;;;5.56;100.00;99924.26;87555;263;136731;-74
2024/02/23 00:22:18;;;;;;;1.60;1.50;;;;;;;5.55;100.00;99917.50;87591;269;23439;-74
2024/02/23 00:24:22;;;;;;;2.00;1.30;;;;;;;5.54;100.00;99908.77;88047;274;136478;-76
2024/02/23 00:26:24;;;;;;;2.90;1.50;;;;;;;5.54;100.00;99903.48;87719;271;22563;-74
2024/02/23 00:28:27;;;;;;;1.70;1.60;;;;;;;5.54;100.00;99897.63;87614;266;136226;-81
2024/02/23 00:30:29;;;;;;;1.50;1.40;;;;;;;5.56;100.00;99902.23;87610;278;22674;-76
2024/02/23 00:32:31;;;;;;;1.80;1.70;;;;;;;5.49;100.00;99898.95;87530;270;136840;-77
2024/02/23 00:34:33;;;;;;;2.00;1.60;;;;;;;5.45;100.00;99901.46;87449;272;23810;-75
2024/02/23 00:36:34;;;;;;;1.50;1.40;;;;;;;5.40;100.00;99899.66;87555;271;136586;-75
2024/02/23 00:38:36;;;;;;;1.60;1.20;;;;;;;5.40;100.00;99902.33;87624;270;22724;-76
2024/02/23 00:40:38;;;;;;;3.50;1.90;;;;;;;5.41;100.00;99896.98;87557;267;136362;-76
2024/02/23 00:42:40;;;;;;;2.40;1.50;;;;;;;5.42;100.00;99900.16;87668;267;22577;-76
2024/02/23 00:44:41;;;;;;;1.60;1.30;;;;;;;5.43;100.00;99898.66;87554;267;136483;-76
2024/02/23 00:46:43;;;;;;;1.90;1.30;;;;;;;5.42;100.00;99907.55;87591;267;22564;-78
2024/02/23 00:48:45;;;;;;;1.40;1.30;;;;;;;5.43;100.00;99901.48;87567;271;137552;-77
2024/02/23 00:50:47;;;;;;;1.80;1.50;;;;;;;5.44;100.00;99903.21;87495;271;23254;-75
2024/02/23 00:52:48;;;;;;;1.80;1.70;;;;;;;5.44;100.00;99898.73;87586;271;136438;-76
2024/02/23 00:54:50;;;;;;;2.20;2.00;;;;;;;5.41;100.00;99895.60;87611;274;24058;-76
2024/02/23 00:56:52;;;;;;;2.00;1.80;;;;;;;5.43;100.00;99893.18;87546;271;137762;-77
2024/02/23 00:58:58;;;;;;;2.00;1.80;;;;;;;5.43;100.00;99899.02;87626;269;22583;-76
2024/02/23 01:01:00;;;;;;;1.50;1.30;;;;;;;5.45;100.00;99903.42;87535;269;138063;-76
2024/02/23 01:03:02;;;;;;;2.20;1.90;;;;;;;5.43;100.00;99906.06;87642;266;22597;-77
2024/02/23 01:05:05;;;;;;;2.70;1.90;;;;;;;5.41;100.00;99897.30;87584;278;136398;-73
2024/02/23 01:07:06;;;;;;;1.30;1.20;;;;;;;5.41;100.00;99898.42;87660;270;24029;-75
2024/02/23 01:09:08;;;;;;;2.10;1.90;;;;;;;5.43;100.00;99896.28;87523;270;136591;-73
2024/02/23 01:11:10;;;;;;;2.10;1.90;;;;;;;5.43;100.00;99888.88;87593;270;22664;-73
2024/02/23 01:13:12;;;;;;;3.80;2.20;;;;;;;5.45;100.00;99898.66;87465;266;137926;-76
2024/02/23 01:15:13;;;;;;;2.30;2.10;;;;;;;5.45;100.00;99892.89;87505;279;22558;-74
2024/02/23 01:17:15;;;;;;;2.50;2.30;;;;;;;5.39;100.00;99894.36;87516;274;135766;-76
2024/02/23 01:19:18;;;;;;;2.20;2.00;;;;;;;5.35;100.00;99898.83;87671;266;25269;-75
2024/02/23 01:21:20;;;;;;;3.70;2.10;;;;;;;5.34;100.00;99891.60;87514;274;136415;-75
2024/02/23 01:23:22;;;;;;;2.10;1.90;;;;;;;5.39;100.00;99891.60;87596;279;22564;-74
2024/02/23 01:25:24;;;;;;;2.90;2.20;;;;;;;5.40;100.00;99891.76;87484;274;136470;-77
2024/02/23 01:27:26;;;;;;;2.10;1.70;;;;;;;5.42;100.00;99890.80;87618;274;24007;-77
2024/02/23 01:29:27;;;;;;;3.00;2.30;;;;;;;5.41;100.00;99894.70;87516;270;136541;-77
2024/02/23 01:31:29;;;;;;;2.20;2.00;;;;;;;5.41;100.00;99895.59;87562;270;25097;-75
2024/02/23 01:33:31;;;;;;;2.60;2.00;;;;;;;5.41;100.00;99896.75;87463;271;136598;-75
2024/02/23 01:35:33;;;;;;;2.90;2.70;;;;;;;5.40;100.00;99890.77;87575;271;23913;-76
2024/02/23 01:37:35;;;;;;;6.60;2.30;;;;;;;5.36;100.00;99894.66;87472;272;137544;-77
2024/02/23 01:39:37;;;;;;;2.50;2.30;;;;;;;5.37;100.00;99886.14;87585;267;24097;-76
2024/02/23 01:41:39;;;;;;;2.80;2.50;;;;;;;5.36;100.00;99882.38;87513;271;136422;-78
2024/02/23 01:43:41;;;;;;;3.30;2.60;;;;;;;5.34;100.00;99888.09;87700;271;22652;-76
2024/02/23 01:45:43;;;;;;;2.20;2.00;;;;;;;5.35;100.00;99884.78;87347;271;136424;-78
2024/02/23 01:47:44;;;;;;;2.70;2.50;;;;;;;5.33;100.00;99886.09;87697;274;22846;-76
2024/02/23 01:49:47;;;;;;;4.20;2.90;;;;;;;5.32;100.00;99874.65;87496;270;136447;-78
2024/02/23 01:51:49;;;;;;;2.60;2.40;;;;;;;5.34;100.00;99879.56;87754;277;22590;-77
2024/02/23 01:53:51;;;;;;;3.10;2.40;;;;;;;5.32;100.00;99878.45;87604;274;136243;-75
2024/02/23 01:55:54;;;;;;;3.00;2.80;;;;;;;5.29;100.00;99885.98;87758;270;22559;-77
2024/02/23 01:57:56;;;;;;;3.50;2.70;;;;;;;5.32;100.00;99881.63;87740;268;136351;-77
2024/02/23 01:59:58;;;;;;;3.00;2.20;;;;;;;5.32;100.00;99880.66;87943;275;22555;-77
2024/02/23 02:02:02;;;;;;;3.90;3.30;;;;;;;5.32;100.00;99878.77;87879;267;136377;-76
2024/02/23 02:04:04;;;;;;;2.70;2.30;;;;;;;5.33;100.00;99882.55;87940;278;136689;-77
2024/02/23 02:06:07;;;;;;;2.40;2.20;;;;;;;5.36;100.00;99880.63;89774;266;25054;-78
2024/02/23 02:08:11;;;;;;;3.20;2.90;;;;;;;5.36;100.00;99883.40;89711;267;136393;-77
2024/02/23 02:10:13;;;;;;;3.40;3.10;;;;;;;5.36;100.00;99880.02;89579;268;22554;-77
2024/02/23 02:12:15;;;;;;;3.20;2.90;;;;;;;5.39;100.00;99878.73;89268;266;136613;-78
2024/02/23 02:14:18;;;;;;;4.70;3.40;;;;;;;5.39;100.00;99874.45;88211;270;25079;-75
2024/02/23 02:16:20;;;;;;;3.30;2.70;;;;;;;5.38;100.00;99878.58;87746;278;136485;-76
2024/02/23 02:18:21;;;;;;;5.10;3.00;;;;;;;5.38;100.00;99867.47;87726;278;22972;-77
2024/02/23 02:20:28;;;;;;;3.30;3.00;;;;;;;5.38;100.00;99870.32;87692;266;137394;-76
2024/02/23 02:22:33;;;;;;;4.20;3.30;;;;;;;5.37;100.00;99875.87;87696;278;23526;-77
2024/02/23 02:24:35;;;;;;;3.20;2.90;;;;;;;5.33;100.00;99875.77;87590;271;136549;-76
2024/02/23 02:26:37;;;;;;;3.20;2.70;;;;;;;5.32;100.00;99874.55;87675;267;22552;-74
2024/02/23 02:28:38;;;;;;;3.70;3.30;;;;;;;5.30;100.00;99874.23;87768;267;136498;-76
2024/02/23 02:30:40;;;;;;;3.60;3.00;;;;;;;5.30;100.00;99863.94;87681;271;22641;-78
2024/02/23 02:32:42;;;;;;;3.20;2.90;;;;;;;5.27;100.00;99861.66;87546;266;138940;-76
2024/02/23 02:34:44;;;;;;;3.90;3.60;;;;;;;5.27;100.00;99859.89;87633;274;22584;-74
2024/02/23 02:36:46;;;;;;;4.50;3.00;;;;;;;5.30;100.00;99858.94;87546;266;136452;-76
2024/02/23 02:38:48;;;;;;;3.00;2.70;;;;;;;5.29;100.00;99863.02;87628;278;22558;-76
2024/02/23 02:40:50;;;;;;;4.50;3.40;;;;;;;5.29;100.00;99859.52;87353;273;137539;-75
2024/02/23 02:42:51;;;;;;;3.00;2.70;;;;;;;5.28;100.00;99861.77;87632;271;22558;-75
2024/02/23 02:46:13;;;;;;;4.50;3.60;;;;;;;5.13;100.00;99856.68;85346;302;602311;-75
2024/02/23 02:48:15;;;;;;;4.50;4.00;;;;;;;5.05;100.00;99859.95;86450;290;136352;-75
2024/02/23 02:50:17;;;;;;;4.30;3.90;;;;;;;5.04;100.00;99858.85;86631;290;24038;-75
2024/02/23 02:52:21;;;;;;;5.00;3.50;;;;;;;5.05;100.00;99852.48;87086;272;136052;-77
2024/02/23 02:54:22;;;;;;;3.80;3.20;;;;;;;5.09;100.00;99852.81;86983;285;22661;-77
2024/02/23 02:56:24;;;;;;;4.10;3.60;;;;;;;5.11;100.00;99855.69;86879;284;135957;-72
2024/02/23 02:58:27;;;;;;;5.90;3.80;;;;;;;5.12;100.00;99853.61;87172;280;22804;-77
2024/02/23 03:00:30;;;;;;;3.90;3.50;;;;;;;5.10;100.00;99852.91;86643;274;683707;-75
2024/02/23 03:02:32;;;;;;;7.70;4.40;;;;;;;5.09;100.00;99851.27;87137;284;25109;-76
2024/02/23 03:04:34;;;;;;;5.10;4.60;;;;;;;5.09;100.00;99852.61;87071;278;136598;-75
2024/02/23 03:06:36;;;;;;;4.70;4.20;;;;;;;5.10;100.00;99858.77;87473;266;23141;-75
2024/02/23 03:08:38;;;;;;;6.40;4.30;;;;;;;5.09;100.00;99862.20;87023;283;137292;-77
2024/02/23 03:10:40;;;;;;;4.30;3.30;;;;;;;5.10;100.00;99866.85;87069;276;22746;-77
2024/02/23 03:12:41;;;;;;;4.20;3.80;;;;;;;5.10;100.00;99865.23;86914;275;137332;-77
2024/02/23 03:14:44;;;;;;;4.50;4.10;;;;;;;5.11;100.00;99865.89;86992;280;24107;-78
2024/02/23 03:16:47;;;;;;;4.40;3.40;;;;;;;5.11;100.00;99862.46;87055;280;136210;-81
2024/02/23 03:18:50;;;;;;;5.80;4.40;;;;;;;5.13;100.00;99862.07;87267;279;22578;-78
2024/02/23 03:20:52;;;;;;;4.60;4.00;;;;;;;5.15;100.00;99867.19;87121;275;136202;-76
2024/02/23 03:22:53;;;;;;;5.30;3.60;;;;;;;5.15;100.00;99864.87;87219;275;22648;-76
2024/02/23 03:24:55;;;;;;;5.10;3.90;;;;;;;5.14;100.00;99864.31;87158;275;137590;-79
2024/02/23 03:26:57;;;;;;;6.60;4.60;;;;;;;5.11;100.00;99865.86;87289;271;24851;-79
2024/02/23 03:28:59;;;;;;;6.40;4.80;;;;;;;5.11;100.00;99860.71;87842;275;135961;-78
2024/02/23 03:31:01;;;;;;;3.90;3.40;;;;;;;5.14;100.00;99859.22;88558;275;22639;-75
2024/02/23 03:33:02;;;;;;;6.60;4.50;;;;;;;5.12;100.00;99860.44;87948;274;140112;-77
2024/02/23 03:35:06;;;;;;;5.60;4.00;;;;;;;5.16;100.00;99859.65;87986;277;22567;-73
2024/02/23 03:37:08;;;;;;;5.40;4.20;;;;;;;5.17;100.00;99864.00;87613;282;137391;-77
2024/02/23 03:39:10;;;;;;;5.80;5.10;;;;;;;5.18;100.00;99861.86;87371;274;25096;-75
2024/02/23 03:41:12;;;;;;;5.40;4.90;;;;;;;5.18;100.00;99864.20;86916;281;137904;-75
2024/02/23 03:43:13;;;;;;;5.00;4.40;;;;;;;5.18;100.00;99867.55;87183;283;25201;-77
2024/02/23 03:45:15;;;;;;;4.80;4.20;;;;;;;5.19;100.00;99864.84;87230;275;136189;-75
2024/02/23 03:47:17;;;;;;;5.80;4.40;;;;;;;5.19;100.00;99863.71;87225;275;22565;-77
2024/02/23 03:49:19;;;;;;;4.40;4.10;;;;;;;5.20;100.00;99870.39;87122;275;137706;-77
2024/02/23 03:51:21;;;;;;;5.20;4.80;;;;;;;5.21;100.00;99869.70;87266;279;22590;-77
2024/02/23 03:53:22;;;;;;;5.00;4.20;;;;;;;5.22;100.00;99871.80;87472;271;136328;-76
2024/02/23 03:55:24;;;;;;;5.30;4.50;;;;;;;5.23;100.00;99869.66;87621;270;26118;-76
2024/02/23 03:57:26;;;;;;;5.30;4.70;;;;;;;5.23;100.00;99873.85;87519;273;137540;-76
2024/02/23 03:59:28;;;;;;;5.80;4.40;;;;;;;5.26;100.00;99873.03;87575;271;25119;-73
2024/02/23 04:01:30;;;;;;;4.10;3.50;;;;;;;5.27;100.00;99874.71;87456;277;137203;-76
2024/02/23 04:03:32;;;;;;;4.50;3.90;;;;;;;5.27;100.00;99872.11;87585;271;23329;-76
2024/02/23 04:05:33;;;;;;;4.40;4.00;;;;;;;5.21;100.00;99874.05;87412;270;135553;-77
2024/02/23 04:07:35;;;;;;;7.50;5.30;;;;;;;5.14;100.00;99871.67;87539;271;22573;-76
2024/02/23 04:09:37;;;;;;;3.90;3.50;;;;;;;5.05;100.00;99870.80;87473;275;135998;-78
2024/02/23 04:11:39;;;;;;;7.10;4.30;;;;;;;5.04;100.00;99875.86;87519;272;24026;-76
2024/02/23 04:13:41;;;;;;;5.30;4.00;;;;;;;5.02;100.00;99875.89;87384;271;136072;-78
2024/02/23 04:15:43;;;;;;;7.00;4.20;;;;;;;5.01;100.00;99869.75;87297;272;25335;-76
2024/02/23 04:17:46;;;;;;;7.80;5.60;;;;;;;5.02;100.00;99870.31;87352;270;136151;-76
2024/02/23 04:19:47;;;;;;;6.40;4.40;;;;;;;5.01;100.00;99864.47;87671;274;22937;-77
2024/02/23 04:21:49;;;;;;;4.50;3.20;;;;;;;4.97;100.00;99863.83;87486;276;139496;-78
2024/02/23 04:23:51;;;;;;;5.00;4.00;;;;;;;4.95;100.00;99865.55;87545;267;23956;-76
2024/02/23 04:25:54;;;;;;;6.20;4.70;;;;;;;4.94;100.00;99875.91;87539;277;136029;-77
2024/02/23 04:27:56;;;;;;;7.10;5.30;;;;;;;4.95;100.00;99873.08;87658;266;24056;-78
2024/02/23 04:30:01;;;;;;;5.40;4.40;;;;;;;4.94;100.00;99873.80;87530;271;136317;-77
2024/02/23 04:32:04;;;;;;;5.50;4.50;;;;;;;4.91;100.00;99873.47;87364;279;136807;-74
2024/02/23 04:34:05;;;;;;;5.60;4.90;;;;;;;4.89;100.00;99878.74;87623;277;22581;-78
2024/02/23 04:36:07;;;;;;;10.10;5.90;;;;;;;4.87;100.00;99879.77;87515;274;159569;-77
2024/02/23 04:38:09;;;;;;;5.10;4.50;;;;;;;4.85;100.00;99875.93;87624;274;23188;-75
2024/02/23 04:40:11;;;;;;;6.10;4.80;;;;;;;4.80;100.00;99871.21;87461;267;136124;-76
2024/02/23 04:42:13;;;;;;;4.90;4.50;;;;;;;4.81;100.00;99881.66;87534;271;22572;-73
2024/02/23 04:44:15;;;;;;;6.00;5.40;;;;;;;4.80;100.00;99879.98;87438;278;136456;-78
2024/02/23 04:46:17;;;;;;;6.00;4.60;;;;;;;4.80;100.00;99884.63;87511;276;23215;-75
2024/02/23 04:48:18;;;;;;;5.60;4.20;;;;;;;4.78;100.00;99886.45;87422;278;136159;-77
2024/02/23 04:50:20;;;;;;;4.90;3.90;;;;;;;4.78;100.00;99887.95;87643;271;23122;-77
2024/02/23 04:52:22;;;;;;;5.60;4.40;;;;;;;4.76;100.00;99887.30;87505;271;136217;-78
2024/02/23 04:54:24;;;;;;;4.10;3.40;;;;;;;4.77;100.00;99888.59;87471;280;22700;-77
2024/02/23 04:56:26;;;;;;;5.80;4.90;;;;;;;4.78;100.00;99883.27;87365;272;136105;-80
2024/02/23 04:58:28;;;;;;;5.90;4.30;;;;;;;4.78;100.00;99883.27;87534;271;22850;-78
2024/02/23 05:00:33;;;;;;;4.90;4.30;;;;;;;4.76;100.00;99885.36;87465;278;136068;-75
2024/02/23 05:02:35;;;;;;;6.10;4.00;;;;;;;4.73;100.00;99898.88;87571;275;22784;-77
2024/02/23 05:04:37;;;;;;;5.00;4.40;;;;;;;4.75;100.00;99887.30;87407;271;137264;-75
2024/02/23 05:06:39;;;;;;;6.30;4.40;;;;;;;4.73;100.00;99890.65;87473;280;22564;-74
2024/02/23 05:08:41;;;;;;;4.40;3.70;;;;;;;4.72;100.00;99896.36;87333;276;135968;-74
2024/02/23 05:10:42;;;;;;;6.00;4.20;;;;;;;4.71;100.00;99900.65;87431;266;22559;-74
2024/02/23 05:12:44;;;;;;;7.20;5.00;;;;;;;4.74;100.00;99904.63;87411;278;136031;-77
2024/02/23 05:14:46;;;;;;;6.30;4.70;;;;;;;4.74;100.00;99898.81;87480;268;23171;-78
2024/02/23 05:16:48;;;;;;;4.60;4.00;;;;;;;4.78;100.00;99907.90;87679;271;136101;-74
2024/02/23 05:18:50;;;;;;;6.00;4.80;;;;;;;4.80;100.00;99911.17;87736;266;22555;-75
2024/02/23 05:20:52;;;;;;;6.00;4.70;;;;;;;4.81;100.00;99904.19;87684;273;136921;-78
2024/02/23 05:22:56;;;;;;;7.30;4.70;;;;;;;4.83;100.00;99902.80;90059;273;22347;-76
2024/02/23 05:24:57;;;;;;;6.10;4.10;;;;;;;4.84;100.00;99909.47;87896;265;136030;-74
2024/02/23 05:27:02;;;;;;;4.90;4.50;;;;;;;4.83;100.00;99907.89;87643;271;22545;-77
2024/02/23 05:29:04;;;;;;;5.50;4.80;;;;;;;4.84;100.00;99915.38;87398;271;136274;-73
2024/02/23 05:31:05;;;;;;;4.70;4.20;;;;;;;4.85;100.00;99914.65;87592;270;22505;-73
2024/02/23 05:33:08;;;;;;;6.80;5.00;;;;;;;4.83;100.00;99921.58;87532;270;137586;-73
2024/02/23 05:35:10;;;;;;;5.10;4.60;;;;;;;4.84;100.00;99918.67;87522;278;23706;-74
2024/02/23 05:37:12;;;;;;;5.80;5.30;;;;;;;4.85;100.00;99916.44;87579;271;137479;-71
2024/02/23 05:39:15;;;;;;;5.90;4.80;;;;;;;4.85;100.00;99921.75;87696;273;22568;-74
2024/02/23 05:41:17;;;;;;;5.70;5.00;;;;;;;4.86;100.00;99920.92;87587;266;136486;-75
2024/02/23 05:43:19;;;;;;;7.70;4.30;;;;;;;4.87;100.00;99914.95;87718;271;22558;-71
2024/02/23 05:45:21;;;;;;;7.50;5.10;;;;;;;4.87;100.00;99923.83;87628;270;137804;-73
2024/02/23 05:47:23;;;;;;;5.50;5.00;;;;;;;4.86;100.00;99922.67;87587;274;22562;-75
2024/02/23 05:49:25;;;;;;;6.10;4.70;;;;;;;4.84;100.00;99914.06;87546;270;136370;-75
2024/02/23 05:51:32;;;;;;;7.00;4.60;;;;;;;4.88;100.00;99925.65;87497;269;22541;-74
2024/02/23 05:53:34;;;;;;;6.10;5.00;;;;;;;4.88;100.00;99921.77;87348;268;137639;-75
2024/02/23 05:55:36;;;;;;;5.10;4.30;;;;;;;4.92;100.00;99927.51;87674;272;25159;-75
2024/02/23 05:57:38;;;;;;;6.60;4.90;;;;;;;4.96;100.00;99929.08;87469;270;136324;-74
2024/02/23 05:59:40;;;;;;;5.30;4.80;;;;;;;5.00;100.00;99936.96;87548;270;22575;-74
2024/02/23 06:01:42;;;;;;;6.10;4.90;;;;;;;5.01;100.00;99935.55;87472;270;136636;-71
2024/02/23 06:03:44;;;;;;;5.20;4.70;;;;;;;5.01;100.00;99935.92;87608;271;22690;-77
2024/02/23 06:05:46;;;;;;;5.20;4.70;;;;;;;5.03;100.00;99925.98;87486;270;138102;-72
2024/02/23 06:07:48;;;;;;;6.90;4.50;;;;;;;5.06;100.00;99928.33;87681;273;25134;-74
2024/02/23 06:09:50;;;;;;;4.80;4.20;;;;;;;5.07;100.00;99937.71;87558;270;138010;-74
2024/02/23 06:11:51;;;;;;;6.90;5.60;;;;;;;5.08;100.00;99937.69;87627;274;22973;-73
2024/02/23 06:13:53;;;;;;;6.20;5.20;;;;;;;5.09;100.00;99944.98;87391;279;136341;-72
2024/02/23 06:15:55;;;;;;;4.60;4.10;;;;;;;5.10;100.00;99949.61;87662;270;22664;-75
2024/02/23 06:17:57;;;;;;;6.70;5.70;;;;;;;5.10;100.00;99941.35;87498;275;137845;-74
2024/02/23 06:19:59;;;;;;;5.70;5.20;;;;;;;5.13;100.00;99944.20;87636;274;22584;-74
2024/02/23 06:22:01;;;;;;;5.80;4.90;;;;;;;5.14;100.00;99951.66;87417;278;136526;-72
2024/02/23 06:24:04;;;;;;;5.60;5.00;;;;;;;5.22;100.00;99951.02;87450;267;136915;-73
2024/02/23 06:26:07;;;;;;;5.60;5.00;;;;;;;5.26;100.00;99950.71;88311;270;22648;-75
2024/02/23 06:28:08;;;;;;;6.00;5.30;;;;;;;5.29;100.00;99942.20;87321;271;136620;-73
2024/02/23 06:30:10;;;;;;;6.10;5.20;;;;;;;5.31;100.00;99950.06;87525;287;22573;-72
2024/02/23 06:32:13;;;;;;;5.90;5.10;;;;;;;5.32;100.00;99952.45;87512;270;136888;-74
2024/02/23 06:34:15;;;;;;;6.20;5.60;;;;;;;5.32;100.00;99944.13;87555;274;23427;-71
2024/02/23 06:36:18;;;;;;;7.00;6.10;;;;;;;5.34;100.00;99948.48;87388;279;136579;-73
2024/02/23 06:38:20;;;;;;;5.90;5.40;;;;;;;5.31;100.00;99951.04;87896;274;22555;-77
2024/02/23 06:40:22;;;;;;;6.40;5.30;;;;;;;5.34;100.00;99946.39;87507;270;136605;-72
2024/02/23 06:42:25;;;;;;;7.40;5.90;;;;;;;5.35;100.00;99946.98;87528;271;24688;-75
2024/02/23 06:44:27;;;;;;;9.00;6.30;;;;;;;5.34;100.00;99939.17;87554;278;137191;-73
2024/02/23 06:46:29;;;;;;;5.70;5.20;;;;;;;5.36;100.00;99947.05;87548;273;25135;-74
2024/02/23 06:48:32;;;;;;;8.70;6.00;;;;;;;5.35;100.00;99952.05;87493;272;136779;-75
2024/02/23 06:50:35;;;;;;;5.90;5.30;;;;;;;5.34;100.00;99944.13;87596;269;23812;-75
2024/02/23 06:52:37;;;;;;;7.60;5.70;;;;;;;5.36;100.00;99948.58;87706;274;137475;-74
2024/02/23 06:54:39;;;;;;;7.90;6.40;;;;;;;5.37;100.00;99945.38;87762;270;22625;-73
2024/02/23 06:56:41;;;;;;;7.60;6.40;;;;;;;5.38;100.00;99942.90;87589;266;136477;-75
2024/02/23 06:58:42;;;;;;;7.60;5.80;;;;;;;5.40;100.00;99942.41;87465;272;23921;-75
2024/02/23 07:00:44;;;;;;;7.30;6.10;;;;;;;5.39;100.00;99932.43;87355;271;136593;-71
2024/02/23 07:02:46;;;;;;;6.40;5.80;;;;;;;5.41;100.00;99937.18;87637;266;26401;-76
2024/02/23 07:04:48;;;;;;;8.20;5.80;;;;;;;5.43;100.00;99926.92;87352;265;137691;-73
2024/02/23 07:06:49;;;;;;;8.00;6.50;;;;;;;5.44;100.00;99924.80;87583;272;25169;-74
2024/02/23 07:08:51;;;;;;;8.00;6.70;;;;;;;5.48;100.00;99931.31;87470;274;137096;-73
2024/02/23 07:10:53;;;;;;;8.00;7.30;;;;;;;5.53;100.00;99933.75;87614;270;25349;-72
2024/02/23 07:12:56;;;;;;;7.70;6.90;;;;;;;5.55;100.00;99942.02;87565;270;136760;-76
2024/02/23 07:14:58;;;;;;;7.50;6.60;;;;;;;5.56;100.00;99942.91;87467;272;22554;-74
2024/02/23 07:17:00;;;;;;;8.60;7.70;;;;;;;5.59;100.00;99942.48;87511;277;137495;-76
2024/02/23 07:19:02;;;;;;;8.20;7.10;;;;;;;5.62;100.00;99952.30;87584;270;22562;-73
2024/02/23 07:21:04;;;;;;;9.50;7.30;;;;;;;5.68;100.00;99949.05;87337;272;136931;-72
2024/02/23 07:23:06;;;;;;;7.90;6.60;;;;;;;5.72;100.00;99955.56;87575;279;22524;-74
2024/02/23 07:25:08;;;;;;;9.90;6.40;;;;;;;5.73;100.00;99957.55;87442;272;137289;-74
2024/02/23 07:27:10;;;;;;;9.20;7.00;;;;;;;5.69;100.00;99955.63;87562;271;22591;-74
2024/02/23 07:29:12;;;;;;;8.30;6.60;;;;;;;5.69;100.00;99962.54;87426;267;138062;-77
2024/02/23 07:31:16;;;;;;;7.80;6.80;;;;;;;5.72;100.00;99955.04;87716;271;22575;-76
2024/02/23 07:33:19;;;;;;;8.80;7.30;;;;;;;5.73;100.00;99956.95;87395;271;137383;-75
2024/02/23 07:35:21;;;;;;;9.40;7.60;;;;;;;5.71;100.00;99962.83;87482;275;22561;-74
2024/02/23 07:37:23;;;;;;;8.30;7.40;;;;;;;5.73;100.00;99957.57;87409;274;137696;-74
2024/02/23 07:39:24;;;;;;;8.00;7.20;;;;;;;5.73;100.00;99972.70;87596;274;23997;-74
2024/02/23 07:41:26;;;;;;;12.30;8.20;;;;;;;5.73;100.00;99970.06;87468;271;136601;-76
2024/02/23 07:43:29;;;;;;;8.50;7.60;;;;;;;5.72;100.00;99982.84;87635;273;23980;-76
2024/02/23 07:45:33;;;;;;;7.70;7.00;;;;;;;5.71;100.00;99972.85;87469;275;136722;-74
2024/02/23 07:47:35;;;;;;;8.90;7.70;;;;;;;5.73;100.00;99972.86;87451;269;22579;-74
2024/02/23 07:49:37;;;;;;;9.00;7.60;;;;;;;5.72;100.00;99967.99;87539;277;136750;-75
2024/02/23 07:51:39;;;;;;;9.30;8.30;;;;;;;5.73;100.00;99975.46;87593;277;25132;-75
2024/02/23 07:53:40;;;;;;;8.80;8.00;;;;;;;5.76;100.00;99979.23;87509;274;136406;-74
2024/02/23 07:55:42;;;;;;;9.30;8.20;;;;;;;5.75;100.00;99972.33;87587;271;22847;-73
2024/02/23 07:57:44;;;;;;;14.90;8.50;;;;;;;5.73;100.00;99971.98;87547;270;136196;-75
2024/02/23 07:59:47;;;;;;;9.90;8.90;;;;;;;5.73;100.00;99978.17;87629;274;22562;-75
2024/02/23 08:01:50;;;;;;;10.60;8.60;;;;;;;5.73;100.00;99974.67;87493;267;136525;-74
2024/02/23 08:03:51;;;;;;;9.70;8.70;;;;;;;5.75;100.00;99977.73;87708;278;22600;-72
2024/02/23 08:05:53;;;;;;;10.10;8.60;;;;;;;5.75;100.00;99974.23;88188;267;136105;-75
2024/02/23 08:07:56;;;;;;;11.10;8.90;;;;;;;5.75;100.00;99966.47;89455;268;22542;-76
2024/02/23 08:09:59;;;;;;;11.10;9.10;;;;;;;5.82;100.00;99969.54;89227;272;136550;-72
2024/02/23 08:12:01;;;;;;;10.50;8.10;;;;;;;5.85;100.00;99981.81;89380;267;22563;-72
2024/02/23 08:14:06;;;;;;;10.90;9.10;;;;;;;5.89;100.00;99980.61;89039;266;23631;-74
2024/02/23 08:16:08;;;;;;;10.30;8.40;;;;;;;5.95;100.00;99980.52;87684;270;136947;-73
2024/02/23 08:18:10;;;;;;;11.00;9.00;;;;;;;6.00;100.00;99983.21;87550;276;22593;-77
2024/02/23 08:20:12;;;;;;;13.10;7.80;;;;;;;6.01;100.00;99978.09;87534;263;138242;-74
2024/02/23 08:22:14;;;;;;;9.20;7.50;;;;;;;6.01;100.00;99979.51;87664;266;22640;-71
2024/02/23 08:24:15;;;;;;;11.00;8.80;;;;;;;6.02;100.00;99984.51;87581;270;137572;-74
2024/02/23 08:26:20;;;;;;;11.70;8.70;;;;;;;6.04;100.00;99987.02;87366;280;25224;-75
2024/02/23 08:28:23;;;;;;;9.70;8.50;;;;;;;6.06;100.00;99994.52;87534;279;136990;-74
2024/02/23 08:30:24;;;;;;;10.20;7.20;;;;;;;6.10;100.00;99991.84;87447;272;22562;-73
2024/02/23 08:32:26;;;;;;;9.80;7.50;;;;;;;6.09;100.00;99983.14;87339;271;137303;-72
2024/02/23 08:34:28;;;;;;;8.40;7.40;;;;;;;6.09;100.00;100003.91;87503;271;22573;-75
2024/02/23 08:36:30;;;;;;;8.30;7.10;;;;;;;6.06;100.00;100009.34;87499;287;137935;-75
2024/02/23 08:38:32;;;;;;;9.60;8.70;;;;;;;6.04;100.00;100004.07;87521;278;22562;-75
2024/02/23 08:40:34;;;;;;;9.60;7.50;;;;;;;6.02;100.00;100000.38;87481;271;137783;-73
2024/02/23 08:42:39;;;;;;;12.90;8.30;;;;;;;6.03;100.00;99999.78;87484;278;22642;-73
2024/02/23 08:44:41;;;;;;;8.90;8.00;;;;;;;6.00;100.00;100006.77;87463;274;137979;-73
2024/02/23 08:46:43;;;;;;;12.90;9.40;;;;;;;6.03;100.00;100005.10;87528;268;22566;-75
2024/02/23 08:48:45;;;;;;;8.60;7.60;;;;;;;6.03;100.00;100008.11;87379;263;138264;-73
2024/02/23 08:50:47;;;;;;;10.70;8.10;;;;;;;6.07;100.00;100005.77;87635;270;25291;-75
2024/02/23 08:52:50;;;;;;;9.80;7.80;;;;;;;6.06;100.00;100004.61;87517;270;138199;-74
2024/02/23 08:54:51;;;;;;;12.30;7.90;;;;;;;6.03;100.00;99999.61;87482;278;22577;-73
2024/02/23 08:56:53;;;;;;;11.80;8.40;;;;;;;6.08;100.00;100012.91;87507;264;137892;-72
2024/02/23 08:58:55;;;;;;;11.90;8.60;;;;;;;6.07;100.00;100017.20;87633;274;24782;-74
2024/02/23 09:00:57;;;;;;;9.50;7.50;;;;;;;6.10;100.00;100018.47;87492;273;137058;-74
2024/02/23 09:02:59;;;;;;;9.20;8.30;;;;;;;6.11;100.00;100014.66;87529;272;27348;-73
2024/02/23 09:05:01;;;;;;;13.60;7.10;;;;;;;6.14;100.00;100018.23;87436;263;136758;-78
2024/02/23 09:07:03;;;;;;;8.40;7.60;;;;;;;6.12;100.00;100018.48;87752;270;22533;-73
2024/02/23 09:09:05;;;;;;;9.90;8.80;;;;;;;6.10;100.00;100019.02;87459;267;136564;-75
2024/02/23 09:11:07;;;;;;;9.40;8.20;;;;;;;6.09;100.00;100026.90;87495;267;23895;-76
2024/02/23 09:13:10;;;;;;;10.30;8.60;;;;;;;6.08;100.00;100023.13;87482;275;136758;-74
2024/02/23 09:15:12;;;;;;;11.00;8.60;;;;;;;6.09;100.00;100024.22;87518;269;24049;-72
2024/02/23 09:17:14;;;;;;;9.90;7.90;;;;;;;6.10;100.00;100027.27;87383;270;137104;-76
2024/02/23 09:19:16;;;;;;;10.10;8.90;;;;;;;6.09;100.00;100029.31;87435;266;22744;-74
2024/02/23 09:21:18;;;;;;;9.90;8.90;;;;;;;6.11;100.00;100025.80;87453;270;136979;-73
2024/02/23 09:23:20;;;;;;;11.20;8.50;;;;;;;6.11;100.00;100030.33;87604;266;22562;-74
2024/02/23 09:25:22;;;;;;;11.30;9.40;;;;;;;6.10;100.00;100025.73;87271;269;138443;-74
2024/02/23 09:27:24;;;;;;;10.40;8.70;;;;;;;6.09;100.00;100035.83;87475;271;23411;-75
2024/02/23 09:29:27;;;;;;;13.30;9.60;;;;;;;6.11;100.00;100039.02;87362;279;136925;-75
2024/02/23 09:31:29;;;;;;;10.00;8.90;;;;;;;6.07;100.00;100041.39;87624;271;22590;-76
2024/02/23 09:33:35;;;;;;;10.70;9.10;;;;;;;6.04;100.00;100037.09;87553;270;136879;-73
2024/02/23 09:35:37;;;;;;;12.20;9.60;;;;;;;5.99;100.00;100039.20;87632;270;22574;-75
2024/02/23 09:37:40;;;;;;;11.40;8.00;;;;;;;6.00;100.00;100028.52;87499;275;136709;-73
2024/02/23 09:39:42;;;;;;;10.60;8.80;;;;;;;5.99;100.00;100026.83;87487;268;22900;-73